Ottawa, Ohio
Current Conditions -  °F | °C
As of 12:53 PM on Thursday 18 Dec 2014 (Local Time) from KFDY Reporting Station
Overcast Overcast  
Wind Chill: 20°   Ceiling: 2000
Heat Index: 30°   Visibility: 10mi
Dew Point: 24°   Wind: 13mph
Humidity: 79%   Direction: 260°W
Pressure: 30.2"   Gusts: NA
Location:  41.02°N, 84.05°W
Report Text: KFDY 181753Z AUTO 26011KT 10SM OVC020 M01/M04 A3020 RMK AO2 SLP234 T10111044 11006 21017 58013
Loading
Personal Weather Stations






























Interactive Weather Map New forecast layout! Learn more

10-Day Weather Forecast

Advertisements
Track Severe Weather on mobile